createdAt,value
2023-05-08T00:02:13.079Z,-1.08
2023-05-08T00:04:40.268Z,-1.14
2023-05-08T00:07:07.373Z,-1.18
2023-05-08T00:09:34.424Z,-1.18
2023-05-08T00:12:03.458Z,-1.09
2023-05-08T00:14:30.880Z,-1.07
2023-05-08T00:17:00.765Z,-1.04
2023-05-08T00:19:27.782Z,-1.05
2023-05-08T00:21:55.160Z,-1.12
2023-05-08T00:24:22.353Z,-1.14
2023-05-08T00:26:49.441Z,-1.12
2023-05-08T00:29:16.426Z,-1.15
2023-05-08T00:31:50.083Z,-1.15
2023-05-08T00:34:17.290Z,-1.20
2023-05-08T00:36:44.255Z,-1.28
2023-05-08T00:39:12.662Z,-1.26
2023-05-08T00:41:39.872Z,-1.29
2023-05-08T00:44:13.422Z,-1.25
2023-05-08T00:46:42.250Z,-1.26
2023-05-08T00:49:14.635Z,-1.31
2023-05-08T00:51:43.419Z,-1.42
2023-05-08T00:54:14.000Z,-1.32
2023-05-08T00:56:41.138Z,-1.36
2023-05-08T00:59:10.617Z,-1.40
2023-05-08T01:01:40.880Z,-1.46
2023-05-08T01:04:08.201Z,-1.65
2023-05-08T01:06:37.009Z,-1.69
2023-05-08T01:09:04.274Z,-1.80
2023-05-08T01:11:48.770Z,-1.76
2023-05-08T01:14:32.803Z,-1.80
2023-05-08T01:17:15.101Z,-1.79
2023-05-08T01:19:58.167Z,-1.84
2023-05-08T01:23:09.156Z,-1.88
2023-05-08T01:25:54.010Z,-1.99
2023-05-08T01:28:52.220Z,-1.99
2023-05-08T01:31:28.937Z,-2.09
2023-05-08T01:34:02.631Z,-2.14
2023-05-08T01:36:40.750Z,-2.25
2023-05-08T01:39:19.208Z,-2.34
2023-05-08T01:41:51.363Z,-2.33
2023-05-08T01:44:21.998Z,-2.49
2023-05-08T01:46:50.614Z,-2.29
2023-05-08T01:49:30.693Z,-2.32
2023-05-08T01:52:07.464Z,-2.34
2023-05-08T01:54:39.834Z,-2.30
2023-05-08T01:57:09.741Z,-2.26
2023-05-08T01:59:37.201Z,-2.21
2023-05-08T02:02:05.160Z,-2.19
2023-05-08T02:04:37.541Z,-2.27
2023-05-08T02:07:10.421Z,-2.22
2023-05-08T02:09:38.560Z,-2.13
2023-05-08T02:12:07.372Z,-2.04
2023-05-08T02:14:35.192Z,-2.02
2023-05-08T02:17:11.981Z,-1.99
2023-05-08T02:19:40.041Z,-1.89
2023-05-08T02:22:09.322Z,-1.86
2023-05-08T02:24:37.270Z,-1.83
2023-05-08T02:27:05.735Z,-1.75
2023-05-08T02:29:32.930Z,-1.76
2023-05-08T02:32:01.505Z,-1.65
2023-05-08T02:34:29.054Z,-1.55
2023-05-08T02:36:56.136Z,-1.47
2023-05-08T02:39:26.053Z,-1.44
2023-05-08T02:41:53.254Z,-1.33
2023-05-08T02:44:22.721Z,-1.27
2023-05-08T02:46:59.509Z,-1.24
2023-05-08T02:49:38.325Z,-1.18
2023-05-08T02:52:11.739Z,-1.13
2023-05-08T02:54:46.278Z,-1.07
2023-05-08T02:57:29.408Z,-0.98
2023-05-08T03:00:08.473Z,-0.93
2023-05-08T03:02:51.178Z,-0.82
2023-05-08T03:05:20.872Z,-0.84
2023-05-08T03:07:51.431Z,-0.66
2023-05-08T03:10:19.493Z,-0.56
2023-05-08T03:12:49.153Z,-0.47
2023-05-08T03:15:17.920Z,-0.34
2023-05-08T03:17:46.721Z,-0.22
2023-05-08T03:20:17.413Z,-0.07
2023-05-08T03:22:46.800Z,0.07
2023-05-08T03:25:17.333Z,0.14
2023-05-08T03:27:48.721Z,0.27
2023-05-08T03:30:17.178Z,0.46
2023-05-08T03:32:51.767Z,0.56
2023-05-08T03:35:19.980Z,0.66
2023-05-08T03:37:47.392Z,0.78
2023-05-08T03:40:15.031Z,0.95
2023-05-08T03:42:44.265Z,1.14
2023-05-08T03:45:11.755Z,1.28
2023-05-08T03:47:39.308Z,1.48
2023-05-08T03:50:08.682Z,1.66
2023-05-08T03:52:36.052Z,1.82
2023-05-08T03:55:03.837Z,2.01
2023-05-08T03:57:36.314Z,2.11
2023-05-08T04:00:09.871Z,2.25
2023-05-08T04:03:23.002Z,2.50
2023-05-08T04:06:01.654Z,2.65
2023-05-08T04:08:30.338Z,2.76
2023-05-08T04:11:27.017Z,2.91
2023-05-08T04:14:01.610Z,3.07
2023-05-08T04:16:32.935Z,3.20
2023-05-08T04:19:02.962Z,3.31
2023-05-08T04:21:34.859Z,3.35
2023-05-08T04:24:03.600Z,3.55
2023-05-08T04:26:34.272Z,3.62
2023-05-08T04:29:02.996Z,3.85
2023-05-08T04:31:31.209Z,3.99
2023-05-08T04:33:58.878Z,4.17
2023-05-08T04:36:29.510Z,4.23
2023-05-08T04:38:59.049Z,4.36
2023-05-08T04:41:27.615Z,4.39
2023-05-08T04:43:57.957Z,4.58
2023-05-08T04:46:25.788Z,4.62
2023-05-08T04:48:52.999Z,4.81
2023-05-08T04:51:21.932Z,4.84
2023-05-08T04:53:56.269Z,5.02
2023-05-08T04:56:24.015Z,5.12
2023-05-08T04:58:51.766Z,5.20
2023-05-08T05:01:19.059Z,5.15
2023-05-08T05:03:48.789Z,5.32
2023-05-08T05:06:19.006Z,5.47
2023-05-08T05:08:46.162Z,5.71
2023-05-08T05:11:13.348Z,5.84
2023-05-08T05:13:40.462Z,5.85
2023-05-08T05:16:07.997Z,5.85
2023-05-08T05:18:35.349Z,5.92
2023-05-08T05:21:02.856Z,5.95
2023-05-08T05:23:30.176Z,6.11
2023-05-08T05:25:57.291Z,6.24
2023-05-08T05:28:27.819Z,6.37
2023-05-08T05:30:54.915Z,6.23
2023-05-08T05:33:22.252Z,6.24
2023-05-08T05:35:49.641Z,6.27
2023-05-08T05:38:17.443Z,6.45
2023-05-08T05:40:44.789Z,6.27
2023-05-08T05:43:11.965Z,6.24
2023-05-08T05:45:41.071Z,6.52
2023-05-08T05:48:09.988Z,6.77
2023-05-08T05:50:38.076Z,6.84
2023-05-08T05:53:05.857Z,6.80
2023-05-08T05:55:33.132Z,6.76
2023-05-08T05:58:01.334Z,6.69
2023-05-08T06:00:28.670Z,6.83
2023-05-08T06:02:57.829Z,6.91
2023-05-08T06:05:28.756Z,6.87
2023-05-08T06:07:55.948Z,6.94
2023-05-08T06:10:25.900Z,6.98
2023-05-08T06:12:53.623Z,7.34
2023-05-08T06:15:24.451Z,7.27
2023-05-08T06:17:55.171Z,7.41
2023-05-08T06:20:24.484Z,7.75
2023-05-08T06:22:53.538Z,7.70
2023-05-08T06:25:22.820Z,7.96
2023-05-08T06:27:49.926Z,8.11
2023-05-08T06:30:16.992Z,8.31
2023-05-08T06:32:44.508Z,8.31
2023-05-08T06:35:12.512Z,8.22
2023-05-08T06:37:39.833Z,8.42
2023-05-08T06:40:11.992Z,8.49
2023-05-08T06:42:45.191Z,8.62
2023-05-08T06:45:13.119Z,8.60
2023-05-08T06:47:40.924Z,8.55
2023-05-08T06:50:08.438Z,8.65
2023-05-08T06:52:38.631Z,8.67
2023-05-08T06:55:06.240Z,8.86
2023-05-08T06:57:33.286Z,9.13
2023-05-08T07:00:03.786Z,9.25
2023-05-08T07:02:37.898Z,9.46
2023-05-08T07:05:05.586Z,9.63
2023-05-08T07:07:33.599Z,9.80
2023-05-08T07:10:00.780Z,9.95
2023-05-08T07:12:27.907Z,10.05
2023-05-08T07:14:55.907Z,10.28
2023-05-08T07:17:24.364Z,10.28
2023-05-08T07:20:10.239Z,10.39
2023-05-08T07:22:37.314Z,10.41
2023-05-08T07:25:05.226Z,10.72
2023-05-08T07:27:32.893Z,10.72
2023-05-08T07:30:04.453Z,10.52
2023-05-08T07:32:53.737Z,10.49
2023-05-08T07:35:23.446Z,10.91
2023-05-08T07:38:09.381Z,11.45
2023-05-08T07:40:36.501Z,11.87
2023-05-08T07:43:03.963Z,11.88
2023-05-08T07:45:31.086Z,12.00
2023-05-08T07:47:59.369Z,12.20
2023-05-08T07:50:26.809Z,12.34
2023-05-08T07:53:18.083Z,12.31
2023-05-08T07:55:48.261Z,12.49
2023-05-08T07:58:15.384Z,12.63
2023-05-08T08:00:45.609Z,12.67
2023-05-08T08:03:12.788Z,12.94
2023-05-08T08:05:40.125Z,13.41
2023-05-08T08:08:07.215Z,13.63
2023-05-08T08:10:34.373Z,13.37
2023-05-08T08:13:02.107Z,12.54
2023-05-08T08:15:31.715Z,11.92
2023-05-08T08:18:17.411Z,11.95
2023-05-08T08:20:47.692Z,12.88
2023-05-08T08:23:33.353Z,13.85
2023-05-08T08:26:00.822Z,14.14
2023-05-08T08:28:27.944Z,14.22
2023-05-08T08:30:55.356Z,13.86
2023-05-08T08:33:41.083Z,13.78
2023-05-08T08:36:32.651Z,13.37
2023-05-08T08:39:02.810Z,13.44
2023-05-08T08:41:29.976Z,12.05
2023-05-08T08:43:57.086Z,11.13
2023-05-08T08:46:27.796Z,10.93
2023-05-08T08:48:56.287Z,10.91
2023-05-08T08:51:31.197Z,10.78
2023-05-08T08:54:21.269Z,10.92
2023-05-08T08:56:51.665Z,10.54
2023-05-08T08:59:19.126Z,10.37
2023-05-08T09:02:10.105Z,10.52
2023-05-08T09:04:59.631Z,10.29
2023-05-08T09:07:27.915Z,10.39
2023-05-08T09:09:55.210Z,10.35
2023-05-08T09:12:22.551Z,10.84
2023-05-08T09:14:51.043Z,11.33
2023-05-08T09:17:37.026Z,11.55
2023-05-08T09:20:05.084Z,11.73
2023-05-08T09:22:33.314Z,12.03
2023-05-08T09:25:02.349Z,12.10
2023-05-08T09:27:32.123Z,12.20
2023-05-08T09:30:10.270Z,12.08
2023-05-08T09:32:42.073Z,11.85
2023-05-08T09:35:10.866Z,12.02
2023-05-08T09:37:44.209Z,12.11
2023-05-08T09:40:20.159Z,12.31
2023-05-08T09:42:52.291Z,12.18
2023-05-08T09:45:31.398Z,11.84
2023-05-08T09:47:59.141Z,11.91
2023-05-08T09:50:27.834Z,12.60
2023-05-08T09:52:59.083Z,13.66
2023-05-08T09:55:26.942Z,16.02
2023-05-08T09:57:57.257Z,18.08
2023-05-08T10:00:28.830Z,17.71
2023-05-08T10:03:03.645Z,16.12
2023-05-08T10:05:33.232Z,15.02
2023-05-08T10:08:22.155Z,14.04
2023-05-08T10:10:50.340Z,12.99
2023-05-08T10:13:17.535Z,12.92
2023-05-08T10:15:56.280Z,12.46
2023-05-08T10:18:24.769Z,12.19
2023-05-08T10:20:52.569Z,12.06
2023-05-08T10:23:19.735Z,11.74
2023-05-08T10:25:48.851Z,11.36
2023-05-08T10:28:51.508Z,11.15
2023-05-08T10:31:18.958Z,10.96
2023-05-08T10:33:51.118Z,11.20
2023-05-08T10:36:19.161Z,11.42
2023-05-08T10:38:46.682Z,11.49
2023-05-08T10:41:15.593Z,11.63
2023-05-08T10:43:46.594Z,11.76
2023-05-08T10:46:42.735Z,12.07
2023-05-08T10:49:21.441Z,13.25
2023-05-08T10:52:12.951Z,15.89
2023-05-08T10:55:04.931Z,17.67
2023-05-08T10:57:32.513Z,18.68
2023-05-08T11:00:04.317Z,19.76
2023-05-08T11:02:41.382Z,19.55
2023-05-08T11:05:18.476Z,18.06
2023-05-08T11:08:01.534Z,16.88
2023-05-08T11:10:32.436Z,14.98
2023-05-08T11:13:00.389Z,14.00
2023-05-08T11:15:40.926Z,14.25
2023-05-08T11:18:15.162Z,14.10
2023-05-08T11:20:54.901Z,14.63
2023-05-08T11:23:29.892Z,14.99
2023-05-08T11:26:16.635Z,15.30
2023-05-08T11:28:59.254Z,15.39
2023-05-08T11:31:55.281Z,14.91
2023-05-08T11:34:44.490Z,14.69
2023-05-08T11:37:12.844Z,14.81
2023-05-08T11:39:39.866Z,14.61
2023-05-08T11:42:25.367Z,14.18
2023-05-08T11:45:22.104Z,13.57
2023-05-08T11:47:49.184Z,13.19
2023-05-08T11:50:16.481Z,12.84
2023-05-08T11:52:43.943Z,12.55
2023-05-08T11:55:13.985Z,12.45
2023-05-08T11:57:43.259Z,12.49
2023-05-08T12:00:12.116Z,12.69
2023-05-08T12:02:41.364Z,12.63
2023-05-08T12:05:10.660Z,12.68
2023-05-08T12:07:45.124Z,12.64
2023-05-08T12:10:47.258Z,12.79
2023-05-08T12:13:28.548Z,12.74
2023-05-08T12:15:58.806Z,12.66
2023-05-08T12:18:28.399Z,12.40
2023-05-08T12:21:00.233Z,12.57
2023-05-08T12:23:31.125Z,12.18
2023-05-08T12:26:01.907Z,12.11
2023-05-08T12:28:29.619Z,12.46
2023-05-08T12:30:56.825Z,12.80
2023-05-08T12:33:24.632Z,12.87
2023-05-08T12:35:52.401Z,12.91
2023-05-08T12:38:21.792Z,12.87
2023-05-08T12:40:50.186Z,13.22
2023-05-08T12:43:32.130Z,15.25
2023-05-08T12:45:59.316Z,15.97
2023-05-08T12:48:26.843Z,15.36
2023-05-08T12:50:55.154Z,14.61
2023-05-08T12:53:22.372Z,14.03
2023-05-08T12:55:57.402Z,13.79
2023-05-08T12:58:26.700Z,13.87
2023-05-08T13:01:04.556Z,13.89
2023-05-08T13:03:37.452Z,13.85
2023-05-08T13:06:05.440Z,13.43
2023-05-08T13:08:34.869Z,13.25
2023-05-08T13:11:08.850Z,13.08
2023-05-08T13:13:40.239Z,12.66
2023-05-08T13:16:09.534Z,12.21
2023-05-08T13:18:36.990Z,11.77
2023-05-08T13:21:06.990Z,11.54
2023-05-08T13:23:37.069Z,11.54
2023-05-08T13:26:04.591Z,11.57
2023-05-08T13:28:31.713Z,11.59
2023-05-08T13:31:00.609Z,11.58
2023-05-08T13:33:27.730Z,11.64
2023-05-08T13:35:56.369Z,11.59
2023-05-08T13:38:32.619Z,11.66
2023-05-08T13:41:04.556Z,11.96
2023-05-08T13:43:31.840Z,11.95
2023-05-08T13:45:59.012Z,12.08
2023-05-08T13:48:26.294Z,11.93
2023-05-08T13:50:55.732Z,11.92
2023-05-08T13:53:31.037Z,11.76
2023-05-08T13:55:58.233Z,11.87
2023-05-08T13:58:25.261Z,11.91
2023-05-08T14:00:56.533Z,11.95
2023-05-08T14:03:29.316Z,11.96
2023-05-08T14:05:57.072Z,12.02
2023-05-08T14:08:24.199Z,11.63
2023-05-08T14:10:52.385Z,11.46
2023-05-08T14:13:19.562Z,11.66
2023-05-08T14:15:47.350Z,11.87
2023-05-08T14:18:14.449Z,12.16
2023-05-08T14:20:42.071Z,12.23
2023-05-08T14:23:12.118Z,11.98
2023-05-08T14:25:40.253Z,11.83
2023-05-08T14:28:10.310Z,11.58
2023-05-08T14:30:37.655Z,11.67
2023-05-08T14:33:05.153Z,11.90
2023-05-08T14:35:36.724Z,12.23
2023-05-08T14:38:06.337Z,12.24
2023-05-08T14:40:36.387Z,12.27
2023-05-08T14:43:03.869Z,12.73
2023-05-08T14:45:33.011Z,12.84
2023-05-08T14:48:00.519Z,12.71
2023-05-08T14:50:28.337Z,12.35
2023-05-08T14:52:55.608Z,11.99
2023-05-08T14:55:23.223Z,11.71
2023-05-08T14:57:50.695Z,11.62
2023-05-08T15:00:18.367Z,11.76
2023-05-08T15:02:50.743Z,11.86
2023-05-08T15:05:20.476Z,12.21
2023-05-08T15:07:49.712Z,12.23
2023-05-08T15:10:16.801Z,12.20
2023-05-08T15:12:47.410Z,12.09
2023-05-08T15:15:17.242Z,11.99
2023-05-08T15:17:59.570Z,11.98
2023-05-08T15:20:28.384Z,12.06
2023-05-08T15:23:03.532Z,11.75
2023-05-08T15:25:30.707Z,11.46
2023-05-08T15:28:00.716Z,11.25
2023-05-08T15:30:29.501Z,11.20
2023-05-08T15:32:56.654Z,11.12
2023-05-08T15:35:26.626Z,11.02
2023-05-08T15:37:57.823Z,10.92
2023-05-08T15:40:24.942Z,10.71
2023-05-08T15:42:53.253Z,10.69
2023-05-08T15:45:22.727Z,10.68
2023-05-08T15:47:53.598Z,10.71
2023-05-08T15:50:22.467Z,10.61
2023-05-08T15:52:50.005Z,10.37
2023-05-08T15:55:17.825Z,10.40
2023-05-08T15:57:48.221Z,10.14
2023-05-08T16:00:20.081Z,10.13
2023-05-08T16:02:53.155Z,10.10
2023-05-08T16:05:22.420Z,10.05
2023-05-08T16:07:51.841Z,10.07
2023-05-08T16:10:19.024Z,10.02
2023-05-08T16:12:57.244Z,9.87
2023-05-08T16:15:24.446Z,9.70
2023-05-08T16:17:57.497Z,9.69
2023-05-08T16:20:24.678Z,9.68
2023-05-08T16:22:56.030Z,9.74
2023-05-08T16:25:23.508Z,9.61
2023-05-08T16:27:50.858Z,9.64
2023-05-08T16:30:18.688Z,9.62
2023-05-08T16:32:46.445Z,9.48
2023-05-08T16:35:16.456Z,9.38
2023-05-08T16:38:10.177Z,9.38
2023-05-08T16:40:41.851Z,9.18
2023-05-08T16:43:09.217Z,9.21
2023-05-08T16:45:41.832Z,9.28
2023-05-08T16:48:09.413Z,9.20
2023-05-08T16:50:41.298Z,9.06
2023-05-08T16:53:11.612Z,9.04
2023-05-08T16:55:41.719Z,8.95
2023-05-08T16:58:13.214Z,8.82
2023-05-08T17:00:40.777Z,8.77
2023-05-08T17:03:13.414Z,8.65
2023-05-08T17:05:43.606Z,8.54
2023-05-08T17:08:11.924Z,8.42
2023-05-08T17:10:39.787Z,8.27
2023-05-08T17:13:07.380Z,8.15
2023-05-08T17:15:37.554Z,7.98
2023-05-08T17:18:04.643Z,7.86
2023-05-08T17:20:31.962Z,7.71
2023-05-08T17:22:59.052Z,7.68
2023-05-08T17:25:29.361Z,7.55
2023-05-08T17:27:57.687Z,7.57
2023-05-08T17:30:34.484Z,7.45
2023-05-08T17:33:04.171Z,7.39
2023-05-08T17:35:44.456Z,7.30
2023-05-08T17:38:11.926Z,7.14
2023-05-08T17:40:40.289Z,7.23
2023-05-08T17:43:09.029Z,7.14
2023-05-08T17:45:38.990Z,7.15
2023-05-08T17:48:09.274Z,6.97
2023-05-08T17:50:46.445Z,7.04
2023-05-08T17:53:13.469Z,6.97
2023-05-08T17:55:40.587Z,6.89
2023-05-08T17:58:10.756Z,6.65
2023-05-08T18:00:38.444Z,6.54
2023-05-08T18:03:10.885Z,6.39
2023-05-08T18:05:41.199Z,6.22
2023-05-08T18:08:08.380Z,6.02
2023-05-08T18:10:36.538Z,5.98
2023-05-08T18:13:03.827Z,5.89
2023-05-08T18:15:36.329Z,5.73
2023-05-08T18:18:03.802Z,5.63
2023-05-08T18:20:30.886Z,5.51
2023-05-08T18:22:58.065Z,5.45
2023-05-08T18:25:25.309Z,5.32
2023-05-08T18:27:52.361Z,5.21
2023-05-08T18:30:19.465Z,5.24
2023-05-08T18:32:46.617Z,5.08
2023-05-08T18:35:13.670Z,5.15
2023-05-08T18:37:40.726Z,5.00
2023-05-08T18:40:08.524Z,5.00
2023-05-08T18:42:37.366Z,4.93
2023-05-08T18:45:06.212Z,4.77
2023-05-08T18:47:36.642Z,4.76
2023-05-08T18:50:03.975Z,4.69
2023-05-08T18:52:59.858Z,4.64
2023-05-08T18:55:30.054Z,4.38
2023-05-08T18:57:57.253Z,4.38
2023-05-08T19:00:26.727Z,4.49
2023-05-08T19:02:54.272Z,4.33
2023-05-08T19:05:21.585Z,4.37
2023-05-08T19:07:51.973Z,4.28
2023-05-08T19:10:19.183Z,4.27
2023-05-08T19:12:57.301Z,4.25
2023-05-08T19:15:24.575Z,4.09
2023-05-08T19:17:52.913Z,4.04
2023-05-08T19:20:22.985Z,4.04
2023-05-08T19:22:50.123Z,3.85
2023-05-08T19:25:18.097Z,3.85
2023-05-08T19:27:45.537Z,3.74
2023-05-08T19:30:13.886Z,3.69
2023-05-08T19:32:43.828Z,3.67
2023-05-08T19:35:16.530Z,3.55
2023-05-08T19:37:45.498Z,3.59
2023-05-08T19:40:13.696Z,3.55
2023-05-08T19:42:42.182Z,3.43
2023-05-08T19:45:10.353Z,3.50
2023-05-08T19:47:37.599Z,3.37
2023-05-08T19:50:07.391Z,3.41
2023-05-08T19:53:05.640Z,3.46
2023-05-08T19:55:32.841Z,3.39
2023-05-08T19:58:00.854Z,3.20
2023-05-08T20:00:28.639Z,3.32
2023-05-08T20:02:55.800Z,3.23
2023-05-08T20:05:26.637Z,3.30
2023-05-08T20:07:53.832Z,3.16
2023-05-08T20:10:27.270Z,3.19
2023-05-08T20:12:57.450Z,3.21
2023-05-08T20:15:28.667Z,3.19
2023-05-08T20:17:56.064Z,3.14
2023-05-08T20:20:23.355Z,3.03
2023-05-08T20:22:50.642Z,3.10
2023-05-08T20:25:17.803Z,2.98
2023-05-08T20:27:45.705Z,3.00
2023-05-08T20:30:13.135Z,2.73
2023-05-08T20:32:40.651Z,2.79
2023-05-08T20:35:08.176Z,2.70
2023-05-08T20:37:35.121Z,2.74
2023-05-08T20:40:04.915Z,2.65
2023-05-08T20:42:32.578Z,2.64
2023-05-08T20:45:01.334Z,2.51
2023-05-08T20:47:29.273Z,2.51
2023-05-08T20:49:56.320Z,2.50
2023-05-08T20:52:23.570Z,2.41
2023-05-08T20:54:50.897Z,2.40
2023-05-08T20:57:21.890Z,2.34
2023-05-08T20:59:49.042Z,2.23
2023-05-08T21:02:18.987Z,2.13
2023-05-08T21:04:47.511Z,2.14
2023-05-08T21:07:14.540Z,2.16
2023-05-08T21:09:41.775Z,2.15
2023-05-08T21:12:09.962Z,2.10
2023-05-08T21:14:37.492Z,2.16
2023-05-08T21:17:05.076Z,2.12
2023-05-08T21:19:32.511Z,2.06
2023-05-08T21:21:59.771Z,1.93
2023-05-08T21:24:26.983Z,2.00
2023-05-08T21:26:54.084Z,1.94
2023-05-08T21:29:21.178Z,1.90
2023-05-08T21:31:51.481Z,1.82
2023-05-08T21:34:21.450Z,1.74
2023-05-08T21:36:48.582Z,1.76
2023-05-08T21:39:15.687Z,1.76
2023-05-08T21:41:43.509Z,1.75
2023-05-08T21:44:13.624Z,1.76
2023-05-08T21:46:40.706Z,1.77
2023-05-08T21:49:10.977Z,1.71
2023-05-08T21:51:37.992Z,1.68
2023-05-08T21:54:05.276Z,1.68
2023-05-08T21:56:32.184Z,1.61
2023-05-08T21:58:59.235Z,1.52
2023-05-08T22:01:26.285Z,1.51
2023-05-08T22:03:53.559Z,1.47
2023-05-08T22:06:20.593Z,1.50
2023-05-08T22:08:47.601Z,1.42
2023-05-08T22:11:15.244Z,1.40
2023-05-08T22:13:42.408Z,1.38
2023-05-08T22:16:09.556Z,1.29
2023-05-08T22:18:36.669Z,1.28
2023-05-08T22:21:03.907Z,1.25
2023-05-08T22:23:33.871Z,1.27
2023-05-08T22:26:01.573Z,1.27
2023-05-08T22:28:28.753Z,1.26
2023-05-08T22:30:55.980Z,1.22
2023-05-08T22:33:23.004Z,1.17
2023-05-08T22:35:50.046Z,1.14
2023-05-08T22:38:17.127Z,1.05
2023-05-08T22:40:44.175Z,1.03
2023-05-08T22:43:11.449Z,1.00
2023-05-08T22:45:38.645Z,1.00
2023-05-08T22:48:06.011Z,1.00
2023-05-08T22:50:33.054Z,0.98
2023-05-08T22:53:01.374Z,0.90
2023-05-08T22:55:31.311Z,0.88
2023-05-08T22:57:58.441Z,0.81
2023-05-08T23:00:25.584Z,0.86
2023-05-08T23:02:52.745Z,0.76
2023-05-08T23:05:20.102Z,0.80
2023-05-08T23:07:47.269Z,0.76
2023-05-08T23:10:14.828Z,0.81
2023-05-08T23:12:42.692Z,0.78
2023-05-08T23:15:10.388Z,0.75
2023-05-08T23:17:37.710Z,0.77
2023-05-08T23:20:05.927Z,0.80
2023-05-08T23:22:38.070Z,0.76
2023-05-08T23:25:05.683Z,0.71
2023-05-08T23:27:33.261Z,0.72
2023-05-08T23:30:03.624Z,0.64
2023-05-08T23:32:32.071Z,0.63
2023-05-08T23:34:59.564Z,0.67
2023-05-08T23:37:27.015Z,0.56
2023-05-08T23:39:55.198Z,0.59
2023-05-08T23:42:22.322Z,0.55
2023-05-08T23:44:49.542Z,0.54
2023-05-08T23:47:18.818Z,0.52
2023-05-08T23:49:45.797Z,0.49
2023-05-08T23:52:13.024Z,0.49
2023-05-08T23:54:40.131Z,0.49
2023-05-08T23:57:07.196Z,0.41
2023-05-08T23:59:34.326Z,0.42
